sensor_id;sensor_type;location;lat;lon;timestamp;P1;durP1;ratioP1;P2;durP2;ratioP2
50219;SDS011;36110;51.536;7.562;2023-11-21T00:01:14;2.60;;;1.60;;
50219;SDS011;36110;51.536;7.562;2023-11-21T00:03:40;2.70;;;1.50;;
50219;SDS011;36110;51.536;7.562;2023-11-21T00:06:05;1.70;;;1.60;;
50219;SDS011;36110;51.536;7.562;2023-11-21T00:08:33;1.83;;;1.60;;
50219;SDS011;36110;51.536;7.562;2023-11-21T00:10:59;1.70;;;1.60;;
50219;SDS011;36110;51.536;7.562;2023-11-21T00:13:25;1.88;;;1.65;;
50219;SDS011;36110;51.536;7.562;2023-11-21T00:15:50;2.00;;;1.58;;
50219;SDS011;36110;51.536;7.562;2023-11-21T00:18:16;1.70;;;1.55;;
50219;SDS011;36110;51.536;7.562;2023-11-21T00:20:41;2.05;;;1.67;;
50219;SDS011;36110;51.536;7.562;2023-11-21T00:23:07;1.50;;;1.40;;
50219;SDS011;36110;51.536;7.562;2023-11-21T00:25:32;1.88;;;1.60;;
50219;SDS011;36110;51.536;7.562;2023-11-21T00:27:58;2.20;;;1.73;;
50219;SDS011;36110;51.536;7.562;2023-11-21T00:30:23;1.67;;;1.58;;
50219;SDS011;36110;51.536;7.562;2023-11-21T00:32:48;1.67;;;1.58;;
50219;SDS011;36110;51.536;7.562;2023-11-21T00:35:14;3.05;;;1.75;;
50219;SDS011;36110;51.536;7.562;2023-11-21T00:37:39;1.73;;;1.63;;
50219;SDS011;36110;51.536;7.562;2023-11-21T00:40:05;1.60;;;1.50;;
50219;SDS011;36110;51.536;7.562;2023-11-21T00:42:31;1.60;;;1.40;;
50219;SDS011;36110;51.536;7.562;2023-11-21T00:44:58;1.73;;;1.63;;
50219;SDS011;36110;51.536;7.562;2023-11-21T00:47:24;1.77;;;1.67;;
50219;SDS011;36110;51.536;7.562;2023-11-21T00:49:49;2.42;;;1.92;;
50219;SDS011;36110;51.536;7.562;2023-11-21T00:52:15;1.60;;;1.50;;
50219;SDS011;36110;51.536;7.562;2023-11-21T00:54:41;2.35;;;1.80;;
50219;SDS011;36110;51.536;7.562;2023-11-21T00:57:06;2.00;;;1.80;;
50219;SDS011;36110;51.536;7.562;2023-11-21T00:59:33;1.77;;;1.50;;
50219;SDS011;36110;51.536;7.562;2023-11-21T01:01:59;1.50;;;1.40;;
50219;SDS011;36110;51.536;7.562;2023-11-21T01:04:26;1.70;;;1.60;;
50219;SDS011;36110;51.536;7.562;2023-11-21T01:06:52;2.33;;;1.88;;
50219;SDS011;36110;51.536;7.562;2023-11-21T01:09:17;2.10;;;1.60;;
50219;SDS011;36110;51.536;7.562;2023-11-21T01:11:43;1.73;;;1.63;;
50219;SDS011;36110;51.536;7.562;2023-11-21T01:14:09;2.28;;;1.52;;
50219;SDS011;36110;51.536;7.562;2023-11-21T01:16:35;2.28;;;1.70;;
50219;SDS011;36110;51.536;7.562;2023-11-21T01:19:00;2.35;;;1.67;;
50219;SDS011;36110;51.536;7.562;2023-11-21T01:21:26;2.05;;;1.70;;
50219;SDS011;36110;51.536;7.562;2023-11-21T01:23:52;1.80;;;1.70;;
50219;SDS011;36110;51.536;7.562;2023-11-21T01:26:18;2.03;;;1.70;;
50219;SDS011;36110;51.536;7.562;2023-11-21T01:28:43;2.45;;;1.58;;
50219;SDS011;36110;51.536;7.562;2023-11-21T01:31:08;1.75;;;1.50;;
50219;SDS011;36110;51.536;7.562;2023-11-21T01:33:34;1.42;;;1.33;;
50219;SDS011;36110;51.536;7.562;2023-11-21T01:35:59;1.83;;;1.73;;
50219;SDS011;36110;51.536;7.562;2023-11-21T01:38:25;2.00;;;1.70;;
50219;SDS011;36110;51.536;7.562;2023-11-21T01:40:50;1.80;;;1.70;;
50219;SDS011;36110;51.536;7.562;2023-11-21T01:43:15;2.03;;;1.83;;
50219;SDS011;36110;51.536;7.562;2023-11-21T01:45:41;2.15;;;1.73;;
50219;SDS011;36110;51.536;7.562;2023-11-21T01:48:07;1.65;;;1.55;;
50219;SDS011;36110;51.536;7.562;2023-11-21T01:50:33;1.80;;;1.70;;
50219;SDS011;36110;51.536;7.562;2023-11-21T01:52:58;1.95;;;1.80;;
50219;SDS011;36110;51.536;7.562;2023-11-21T01:55:24;2.45;;;2.13;;
50219;SDS011;36110;51.536;7.562;2023-11-21T01:57:50;2.28;;;1.95;;
50219;SDS011;36110;51.536;7.562;2023-11-21T02:00:15;2.40;;;1.60;;
50219;SDS011;36110;51.536;7.562;2023-11-21T02:02:42;1.90;;;1.70;;
50219;SDS011;36110;51.536;7.562;2023-11-21T02:05:09;1.58;;;1.48;;
50219;SDS011;36110;51.536;7.562;2023-11-21T02:07:35;1.80;;;1.70;;
50219;SDS011;36110;51.536;7.562;2023-11-21T02:10:01;1.83;;;1.73;;
50219;SDS011;36110;51.536;7.562;2023-11-21T02:12:26;1.80;;;1.70;;
50219;SDS011;36110;51.536;7.562;2023-11-21T02:14:52;1.80;;;1.70;;
50219;SDS011;36110;51.536;7.562;2023-11-21T02:17:18;1.95;;;1.85;;
50219;SDS011;36110;51.536;7.562;2023-11-21T02:19:43;2.05;;;1.70;;
50219;SDS011;36110;51.536;7.562;2023-11-21T02:22:09;1.80;;;1.70;;
50219;SDS011;36110;51.536;7.562;2023-11-21T02:24:36;1.60;;;1.50;;
50219;SDS011;36110;51.536;7.562;2023-11-21T02:27:01;1.70;;;1.60;;
50219;SDS011;36110;51.536;7.562;2023-11-21T02:29:27;2.17;;;1.60;;
50219;SDS011;36110;51.536;7.562;2023-11-21T02:31:53;1.88;;;1.67;;
50219;SDS011;36110;51.536;7.562;2023-11-21T02:34:20;2.70;;;1.70;;
50219;SDS011;36110;51.536;7.562;2023-11-21T02:36:45;2.10;;;1.90;;
50219;SDS011;36110;51.536;7.562;2023-11-21T02:39:12;2.15;;;1.95;;
50219;SDS011;36110;51.536;7.562;2023-11-21T02:41:38;1.75;;;1.60;;
50219;SDS011;36110;51.536;7.562;2023-11-21T02:44:04;1.98;;;1.77;;
50219;SDS011;36110;51.536;7.562;2023-11-21T02:46:31;2.22;;;1.90;;
50219;SDS011;36110;51.536;7.562;2023-11-21T02:48:58;1.70;;;1.60;;
50219;SDS011;36110;51.536;7.562;2023-11-21T02:51:27;1.73;;;1.63;;
50219;SDS011;36110;51.536;7.562;2023-11-21T02:53:52;2.70;;;1.70;;
50219;SDS011;36110;51.536;7.562;2023-11-21T02:56:18;2.10;;;1.70;;
50219;SDS011;36110;51.536;7.562;2023-11-21T02:58:43;1.70;;;1.60;;
50219;SDS011;36110;51.536;7.562;2023-11-21T03:01:09;1.65;;;1.50;;
50219;SDS011;36110;51.536;7.562;2023-11-21T03:03:36;1.90;;;1.80;;
50219;SDS011;36110;51.536;7.562;2023-11-21T03:06:05;1.95;;;1.73;;
50219;SDS011;36110;51.536;7.562;2023-11-21T03:08:31;1.60;;;1.50;;
50219;SDS011;36110;51.536;7.562;2023-11-21T03:10:57;2.00;;;1.80;;
50219;SDS011;36110;51.536;7.562;2023-11-21T03:13:22;1.90;;;1.70;;
50219;SDS011;36110;51.536;7.562;2023-11-21T03:18:46;13.57;;;6.30;;
50219;SDS011;36110;51.536;7.562;2023-11-21T03:21:12;1.70;;;1.60;;
50219;SDS011;36110;51.536;7.562;2023-11-21T03:23:38;1.63;;;1.52;;
50219;SDS011;36110;51.536;7.562;2023-11-21T03:26:03;1.95;;;1.80;;
50219;SDS011;36110;51.536;7.562;2023-11-21T03:28:29;1.65;;;1.55;;
50219;SDS011;36110;51.536;7.562;2023-11-21T03:30:55;2.13;;;1.77;;
50219;SDS011;36110;51.536;7.562;2023-11-21T03:33:21;1.67;;;1.58;;
50219;SDS011;36110;51.536;7.562;2023-11-21T03:35:46;2.10;;;1.90;;
50219;SDS011;36110;51.536;7.562;2023-11-21T03:38:11;2.05;;;1.70;;
50219;SDS011;36110;51.536;7.562;2023-11-21T03:40:37;1.67;;;1.50;;
50219;SDS011;36110;51.536;7.562;2023-11-21T03:43:02;3.10;;;1.95;;
50219;SDS011;36110;51.536;7.562;2023-11-21T03:45:28;3.38;;;1.77;;
50219;SDS011;36110;51.536;7.562;2023-11-21T03:47:53;1.88;;;1.55;;
50219;SDS011;36110;51.536;7.562;2023-11-21T03:50:18;1.80;;;1.70;;
50219;SDS011;36110;51.536;7.562;2023-11-21T03:52:44;2.05;;;1.80;;
50219;SDS011;36110;51.536;7.562;2023-11-21T03:55:09;1.98;;;1.80;;
50219;SDS011;36110;51.536;7.562;2023-11-21T03:57:35;2.10;;;2.00;;
50219;SDS011;36110;51.536;7.562;2023-11-21T04:00:01;2.63;;;2.00;;
50219;SDS011;36110;51.536;7.562;2023-11-21T04:02:26;2.22;;;2.03;;
50219;SDS011;36110;51.536;7.562;2023-11-21T04:04:53;1.92;;;1.80;;
50219;SDS011;36110;51.536;7.562;2023-11-21T04:07:18;1.70;;;1.60;;
50219;SDS011;36110;51.536;7.562;2023-11-21T04:09:43;2.03;;;1.75;;
50219;SDS011;36110;51.536;7.562;2023-11-21T04:12:09;2.20;;;2.00;;
50219;SDS011;36110;51.536;7.562;2023-11-21T04:14:34;2.53;;;1.70;;
50219;SDS011;36110;51.536;7.562;2023-11-21T04:17:00;1.67;;;1.58;;
50219;SDS011;36110;51.536;7.562;2023-11-21T04:19:25;1.70;;;1.50;;
50219;SDS011;36110;51.536;7.562;2023-11-21T04:21:50;1.70;;;1.60;;
50219;SDS011;36110;51.536;7.562;2023-11-21T04:24:16;2.15;;;1.95;;
50219;SDS011;36110;51.536;7.562;2023-11-21T04:26:41;2.88;;;1.70;;
50219;SDS011;36110;51.536;7.562;2023-11-21T04:29:07;2.28;;;2.00;;
50219;SDS011;36110;51.536;7.562;2023-11-21T04:31:32;2.00;;;1.80;;
50219;SDS011;36110;51.536;7.562;2023-11-21T04:33:57;1.95;;;1.75;;
50219;SDS011;36110;51.536;7.562;2023-11-21T04:36:22;1.88;;;1.77;;
50219;SDS011;36110;51.536;7.562;2023-11-21T04:38:48;2.05;;;1.60;;
50219;SDS011;36110;51.536;7.562;2023-11-21T04:41:13;2.50;;;1.92;;
50219;SDS011;36110;51.536;7.562;2023-11-21T04:43:38;1.83;;;1.73;;
50219;SDS011;36110;51.536;7.562;2023-11-21T04:46:04;1.80;;;1.70;;
50219;SDS011;36110;51.536;7.562;2023-11-21T04:48:29;3.03;;;2.13;;
50219;SDS011;36110;51.536;7.562;2023-11-21T04:50:54;2.35;;;1.65;;
50219;SDS011;36110;51.536;7.562;2023-11-21T04:53:20;1.92;;;1.77;;
50219;SDS011;36110;51.536;7.562;2023-11-21T04:55:45;2.00;;;1.80;;
50219;SDS011;36110;51.536;7.562;2023-11-21T04:58:11;2.25;;;1.67;;
50219;SDS011;36110;51.536;7.562;2023-11-21T05:00:37;2.00;;;1.80;;
50219;SDS011;36110;51.536;7.562;2023-11-21T05:03:03;1.85;;;1.75;;
50219;SDS011;36110;51.536;7.562;2023-11-21T05:05:29;2.28;;;1.85;;
50219;SDS011;36110;51.536;7.562;2023-11-21T05:07:54;1.80;;;1.70;;
50219;SDS011;36110;51.536;7.562;2023-11-21T05:10:20;2.10;;;1.90;;
50219;SDS011;36110;51.536;7.562;2023-11-21T05:12:45;1.83;;;1.73;;
50219;SDS011;36110;51.536;7.562;2023-11-21T05:15:13;2.17;;;2.00;;
50219;SDS011;36110;51.536;7.562;2023-11-21T05:17:40;3.08;;;2.10;;
50219;SDS011;36110;51.536;7.562;2023-11-21T05:20:09;1.70;;;1.60;;
50219;SDS011;36110;51.536;7.562;2023-11-21T05:22:36;1.80;;;1.70;;
50219;SDS011;36110;51.536;7.562;2023-11-21T05:25:02;2.95;;;1.80;;
50219;SDS011;36110;51.536;7.562;2023-11-21T05:27:29;3.25;;;2.10;;
50219;SDS011;36110;51.536;7.562;2023-11-21T05:29:55;1.92;;;1.67;;
50219;SDS011;36110;51.536;7.562;2023-11-21T05:32:21;1.80;;;1.63;;
50219;SDS011;36110;51.536;7.562;2023-11-21T05:34:47;2.03;;;1.88;;
50219;SDS011;36110;51.536;7.562;2023-11-21T05:37:13;1.95;;;1.70;;
50219;SDS011;36110;51.536;7.562;2023-11-21T05:39:38;1.67;;;1.58;;
50219;SDS011;36110;51.536;7.562;2023-11-21T05:42:03;2.47;;;1.70;;
50219;SDS011;36110;51.536;7.562;2023-11-21T05:44:29;1.88;;;1.70;;
50219;SDS011;36110;51.536;7.562;2023-11-21T05:46:54;1.95;;;1.83;;
50219;SDS011;36110;51.536;7.562;2023-11-21T05:49:20;2.08;;;1.83;;
50219;SDS011;36110;51.536;7.562;2023-11-21T05:51:46;1.83;;;1.73;;
50219;SDS011;36110;51.536;7.562;2023-11-21T05:54:12;1.80;;;1.70;;
50219;SDS011;36110;51.536;7.562;2023-11-21T05:56:37;2.28;;;2.00;;
50219;SDS011;36110;51.536;7.562;2023-11-21T05:59:03;2.92;;;2.05;;
50219;SDS011;36110;51.536;7.562;2023-11-21T06:01:28;2.03;;;1.90;;
50219;SDS011;36110;51.536;7.562;2023-11-21T06:03:54;2.20;;;2.03;;
50219;SDS011;36110;51.536;7.562;2023-11-21T06:06:20;2.05;;;1.95;;
50219;SDS011;36110;51.536;7.562;2023-11-21T06:08:47;1.80;;;1.70;;
50219;SDS011;36110;51.536;7.562;2023-11-21T06:11:15;3.55;;;1.90;;
50219;SDS011;36110;51.536;7.562;2023-11-21T06:13:41;2.15;;;1.95;;
50219;SDS011;36110;51.536;7.562;2023-11-21T06:16:07;2.25;;;2.05;;
50219;SDS011;36110;51.536;7.562;2023-11-21T06:18:32;1.98;;;1.77;;
50219;SDS011;36110;51.536;7.562;2023-11-21T06:20:57;2.25;;;1.90;;
50219;SDS011;36110;51.536;7.562;2023-11-21T06:23:26;2.13;;;1.90;;
50219;SDS011;36110;51.536;7.562;2023-11-21T06:25:52;1.80;;;1.70;;
50219;SDS011;36110;51.536;7.562;2023-11-21T06:28:17;2.85;;;1.80;;
50219;SDS011;36110;51.536;7.562;2023-11-21T06:30:43;3.17;;;2.03;;
50219;SDS011;36110;51.536;7.562;2023-11-21T06:33:09;2.22;;;2.00;;
50219;SDS011;36110;51.536;7.562;2023-11-21T06:35:35;1.90;;;1.80;;
50219;SDS011;36110;51.536;7.562;2023-11-21T06:38:00;2.10;;;1.92;;
50219;SDS011;36110;51.536;7.562;2023-11-21T06:40:26;2.15;;;1.95;;
50219;SDS011;36110;51.536;7.562;2023-11-21T06:42:51;1.73;;;1.63;;
50219;SDS011;36110;51.536;7.562;2023-11-21T06:45:17;3.08;;;2.05;;
50219;SDS011;36110;51.536;7.562;2023-11-21T06:47:42;13.02;;;8.82;;
50219;SDS011;36110;51.536;7.562;2023-11-21T06:50:08;16.23;;;10.23;;
50219;SDS011;36110;51.536;7.562;2023-11-21T06:52:33;13.82;;;9.20;;
50219;SDS011;36110;51.536;7.562;2023-11-21T06:54:59;17.83;;;11.20;;
50219;SDS011;36110;51.536;7.562;2023-11-21T06:57:24;19.80;;;13.18;;
50219;SDS011;36110;51.536;7.562;2023-11-21T06:59:50;19.80;;;12.25;;
50219;SDS011;36110;51.536;7.562;2023-11-21T07:02:18;19.15;;;12.05;;
50219;SDS011;36110;51.536;7.562;2023-11-21T07:04:46;22.10;;;13.25;;
50219;SDS011;36110;51.536;7.562;2023-11-21T07:07:12;18.90;;;11.20;;
50219;SDS011;36110;51.536;7.562;2023-11-21T07:09:37;16.80;;;10.77;;
50219;SDS011;36110;51.536;7.562;2023-11-21T07:12:03;18.67;;;11.00;;
50219;SDS011;36110;51.536;7.562;2023-11-21T07:14:31;16.90;;;9.77;;
50219;SDS011;36110;51.536;7.562;2023-11-21T07:16:57;13.85;;;9.90;;
50219;SDS011;36110;51.536;7.562;2023-11-21T07:19:22;17.02;;;9.70;;
50219;SDS011;36110;51.536;7.562;2023-11-21T07:21:47;13.93;;;9.32;;
50219;SDS011;36110;51.536;7.562;2023-11-21T07:24:16;15.70;;;9.10;;
50219;SDS011;36110;51.536;7.562;2023-11-21T07:26:41;13.13;;;9.35;;
50219;SDS011;36110;51.536;7.562;2023-11-21T07:29:06;13.88;;;9.00;;
50219;SDS011;36110;51.536;7.562;2023-11-21T07:31:32;15.90;;;8.60;;
50219;SDS011;36110;51.536;7.562;2023-11-21T07:33:59;13.52;;;8.90;;
50219;SDS011;36110;51.536;7.562;2023-11-21T07:36:25;13.88;;;8.15;;
50219;SDS011;36110;51.536;7.562;2023-11-21T07:38:50;13.90;;;8.90;;
50219;SDS011;36110;51.536;7.562;2023-11-21T07:41:16;12.85;;;8.90;;
50219;SDS011;36110;51.536;7.562;2023-11-21T07:43:44;13.10;;;8.57;;
50219;SDS011;36110;51.536;7.562;2023-11-21T07:46:10;9.85;;;7.88;;
50219;SDS011;36110;51.536;7.562;2023-11-21T07:48:37;11.73;;;7.72;;
50219;SDS011;36110;51.536;7.562;2023-11-21T07:51:07;11.00;;;7.72;;
50219;SDS011;36110;51.536;7.562;2023-11-21T07:53:32;14.48;;;8.07;;
50219;SDS011;36110;51.536;7.562;2023-11-21T07:55:58;12.40;;;8.38;;
50219;SDS011;36110;51.536;7.562;2023-11-21T07:58:24;9.25;;;7.20;;
50219;SDS011;36110;51.536;7.562;2023-11-21T08:00:49;9.93;;;7.90;;
50219;SDS011;36110;51.536;7.562;2023-11-21T08:03:15;12.13;;;8.30;;
50219;SDS011;36110;51.536;7.562;2023-11-21T08:05:41;14.93;;;8.50;;
50219;SDS011;36110;51.536;7.562;2023-11-21T08:08:06;12.57;;;7.50;;
50219;SDS011;36110;51.536;7.562;2023-11-21T08:10:32;11.75;;;7.13;;
50219;SDS011;36110;51.536;7.562;2023-11-21T08:12:57;12.75;;;7.53;;
50219;SDS011;36110;51.536;7.562;2023-11-21T08:15:23;10.88;;;7.75;;
50219;SDS011;36110;51.536;7.562;2023-11-21T08:17:48;10.75;;;7.28;;
50219;SDS011;36110;51.536;7.562;2023-11-21T08:20:14;10.27;;;7.18;;
50219;SDS011;36110;51.536;7.562;2023-11-21T08:22:43;11.00;;;7.03;;
50219;SDS011;36110;51.536;7.562;2023-11-21T08:25:09;9.15;;;6.30;;
50219;SDS011;36110;51.536;7.562;2023-11-21T08:27:34;10.57;;;6.70;;
50219;SDS011;36110;51.536;7.562;2023-11-21T08:30:00;10.20;;;6.45;;
50219;SDS011;36110;51.536;7.562;2023-11-21T08:32:26;10.02;;;6.18;;
50219;SDS011;36110;51.536;7.562;2023-11-21T08:34:51;9.50;;;6.30;;
50219;SDS011;36110;51.536;7.562;2023-11-21T08:37:17;9.60;;;6.43;;
50219;SDS011;36110;51.536;7.562;2023-11-21T08:39:45;7.88;;;5.75;;
50219;SDS011;36110;51.536;7.562;2023-11-21T08:42:10;12.40;;;6.35;;
50219;SDS011;36110;51.536;7.562;2023-11-21T08:44:36;9.82;;;6.47;;
50219;SDS011;36110;51.536;7.562;2023-11-21T08:47:01;11.93;;;6.68;;
50219;SDS011;36110;51.536;7.562;2023-11-21T08:49:26;8.68;;;6.15;;
50219;SDS011;36110;51.536;7.562;2023-11-21T08:51:54;8.63;;;6.15;;
50219;SDS011;36110;51.536;7.562;2023-11-21T08:54:24;8.30;;;6.38;;
50219;SDS011;36110;51.536;7.562;2023-11-21T08:56:50;8.60;;;6.30;;
50219;SDS011;36110;51.536;7.562;2023-11-21T08:59:16;15.15;;;9.05;;
50219;SDS011;36110;51.536;7.562;2023-11-21T09:01:41;10.20;;;6.03;;
50219;SDS011;36110;51.536;7.562;2023-11-21T09:04:06;8.80;;;5.53;;
50219;SDS011;36110;51.536;7.562;2023-11-21T09:06:32;7.90;;;5.70;;
50219;SDS011;36110;51.536;7.562;2023-11-21T09:08:57;7.53;;;5.50;;
50219;SDS011;36110;51.536;7.562;2023-11-21T09:11:23;8.70;;;5.90;;
50219;SDS011;36110;51.536;7.562;2023-11-21T09:13:48;8.35;;;5.82;;
50219;SDS011;36110;51.536;7.562;2023-11-21T09:16:14;9.05;;;5.97;;
50219;SDS011;36110;51.536;7.562;2023-11-21T09:18:40;6.82;;;5.38;;
50219;SDS011;36110;51.536;7.562;2023-11-21T09:21:06;6.07;;;5.00;;
50219;SDS011;36110;51.536;7.562;2023-11-21T09:23:31;7.15;;;5.45;;
50219;SDS011;36110;51.536;7.562;2023-11-21T09:25:57;7.32;;;5.60;;
50219;SDS011;36110;51.536;7.562;2023-11-21T09:28:24;7.10;;;5.03;;
50219;SDS011;36110;51.536;7.562;2023-11-21T09:30:52;6.30;;;4.93;;
50219;SDS011;36110;51.536;7.562;2023-11-21T09:33:17;8.85;;;5.45;;
50219;SDS011;36110;51.536;7.562;2023-11-21T09:35:43;7.35;;;5.32;;
50219;SDS011;36110;51.536;7.562;2023-11-21T09:38:09;7.45;;;4.90;;
50219;SDS011;36110;51.536;7.562;2023-11-21T09:40:35;7.68;;;5.50;;
50219;SDS011;36110;51.536;7.562;2023-11-21T09:43:02;5.72;;;4.70;;
50219;SDS011;36110;51.536;7.562;2023-11-21T09:45:34;8.23;;;6.00;;
50219;SDS011;36110;51.536;7.562;2023-11-21T09:48:00;14.75;;;7.95;;
50219;SDS011;36110;51.536;7.562;2023-11-21T09:50:26;8.95;;;5.43;;
50219;SDS011;36110;51.536;7.562;2023-11-21T09:52:58;9.05;;;5.40;;
50219;SDS011;36110;51.536;7.562;2023-11-21T09:55:35;6.50;;;5.00;;
50219;SDS011;36110;51.536;7.562;2023-11-21T09:58:02;6.88;;;4.47;;
50219;SDS011;36110;51.536;7.562;2023-11-21T10:00:28;7.47;;;5.85;;
50219;SDS011;36110;51.536;7.562;2023-11-21T10:02:57;9.27;;;5.13;;
50219;SDS011;36110;51.536;7.562;2023-11-21T10:05:23;12.93;;;7.50;;
50219;SDS011;36110;51.536;7.562;2023-11-21T10:07:49;7.30;;;5.20;;
50219;SDS011;36110;51.536;7.562;2023-11-21T10:10:15;5.82;;;4.88;;
50219;SDS011;36110;51.536;7.562;2023-11-21T10:12:44;6.95;;;4.95;;
50219;SDS011;36110;51.536;7.562;2023-11-21T10:15:18;6.82;;;5.18;;
50219;SDS011;36110;51.536;7.562;2023-11-21T10:17:46;8.00;;;5.72;;
50219;SDS011;36110;51.536;7.562;2023-11-21T10:20:14;7.53;;;5.40;;
50219;SDS011;36110;51.536;7.562;2023-11-21T10:22:39;8.95;;;5.00;;
50219;SDS011;36110;51.536;7.562;2023-11-21T10:25:08;42.67;;;20.05;;
50219;SDS011;36110;51.536;7.562;2023-11-21T10:27:34;7.90;;;5.30;;
50219;SDS011;36110;51.536;7.562;2023-11-21T10:30:01;7.20;;;4.88;;
50219;SDS011;36110;51.536;7.562;2023-11-21T10:32:28;8.00;;;5.82;;
50219;SDS011;36110;51.536;7.562;2023-11-21T10:34:57;6.35;;;4.95;;
50219;SDS011;36110;51.536;7.562;2023-11-21T10:37:22;6.80;;;4.80;;
50219;SDS011;36110;51.536;7.562;2023-11-21T10:39:48;6.10;;;4.90;;
50219;SDS011;36110;51.536;7.562;2023-11-21T10:42:13;5.43;;;4.68;;
50219;SDS011;36110;51.536;7.562;2023-11-21T10:44:41;7.00;;;4.75;;
50219;SDS011;36110;51.536;7.562;2023-11-21T10:47:08;46.05;;;22.77;;
50219;SDS011;36110;51.536;7.562;2023-11-21T10:49:33;7.40;;;5.13;;
50219;SDS011;36110;51.536;7.562;2023-11-21T10:51:59;5.80;;;4.78;;
50219;SDS011;36110;51.536;7.562;2023-11-21T10:54:24;16.42;;;9.43;;
50219;SDS011;36110;51.536;7.562;2023-11-21T10:56:53;45.97;;;23.48;;
50219;SDS011;36110;51.536;7.562;2023-11-21T10:59:22;6.78;;;4.90;;
50219;SDS011;36110;51.536;7.562;2023-11-21T11:01:51;24.52;;;13.95;;
50219;SDS011;36110;51.536;7.562;2023-11-21T11:04:18;15.85;;;9.52;;
50219;SDS011;36110;51.536;7.562;2023-11-21T11:06:43;19.92;;;11.20;;
50219;SDS011;36110;51.536;7.562;2023-11-21T11:09:10;50.58;;;25.50;;
50219;SDS011;36110;51.536;7.562;2023-11-21T11:11:39;7.22;;;5.45;;
50219;SDS011;36110;51.536;7.562;2023-11-21T11:14:06;39.35;;;19.90;;
50219;SDS011;36110;51.536;7.562;2023-11-21T11:16:34;40.05;;;19.92;;
50219;SDS011;36110;51.536;7.562;2023-11-21T11:19:00;38.50;;;19.48;;
50219;SDS011;36110;51.536;7.562;2023-11-21T11:21:31;7.32;;;5.00;;
50219;SDS011;36110;51.536;7.562;2023-11-21T11:26:51;8.57;;;6.05;;
50219;SDS011;36110;51.536;7.562;2023-11-21T11:29:29;35.08;;;18.05;;
50219;SDS011;36110;51.536;7.562;2023-11-21T11:37:59;11.18;;;7.57;;
50219;SDS011;36110;51.536;7.562;2023-11-21T11:40:26;18.35;;;11.77;;
50219;SDS011;36110;51.536;7.562;2023-11-21T11:43:05;40.05;;;20.67;;
50219;SDS011;36110;51.536;7.562;2023-11-21T11:45:32;40.00;;;20.98;;
50219;SDS011;36110;51.536;7.562;2023-11-21T11:47:59;17.08;;;10.55;;
50219;SDS011;36110;51.536;7.562;2023-11-21T11:50:25;9.95;;;7.05;;
50219;SDS011;36110;51.536;7.562;2023-11-21T11:52:55;8.25;;;5.90;;
50219;SDS011;36110;51.536;7.562;2023-11-21T11:55:23;28.38;;;15.05;;
50219;SDS011;36110;51.536;7.562;2023-11-21T11:57:53;12.73;;;8.40;;
50219;SDS011;36110;51.536;7.562;2023-11-21T12:02:56;28.85;;;15.15;;
50219;SDS011;36110;51.536;7.562;2023-11-21T12:05:24;33.00;;;15.77;;
50219;SDS011;36110;51.536;7.562;2023-11-21T12:07:56;29.15;;;17.08;;
50219;SDS011;36110;51.536;7.562;2023-11-21T12:10:29;10.30;;;7.38;;
50219;SDS011;36110;51.536;7.562;2023-11-21T12:12:55;13.63;;;7.88;;
50219;SDS011;36110;51.536;7.562;2023-11-21T12:15:22;23.98;;;13.85;;
50219;SDS011;36110;51.536;7.562;2023-11-21T12:17:48;24.55;;;14.95;;
50219;SDS011;36110;51.536;7.562;2023-11-21T12:20:14;21.80;;;14.07;;
50219;SDS011;36110;51.536;7.562;2023-11-21T12:22:45;11.40;;;7.63;;
50219;SDS011;36110;51.536;7.562;2023-11-21T12:25:15;27.50;;;14.20;;
50219;SDS011;36110;51.536;7.562;2023-11-21T12:27:43;17.52;;;9.75;;
50219;SDS011;36110;51.536;7.562;2023-11-21T12:30:10;21.05;;;12.77;;
50219;SDS011;36110;51.536;7.562;2023-11-21T12:32:42;6.82;;;5.53;;
50219;SDS011;36110;51.536;7.562;2023-11-21T12:35:09;28.55;;;16.35;;
50219;SDS011;36110;51.536;7.562;2023-11-21T12:37:36;26.88;;;15.05;;
50219;SDS011;36110;51.536;7.562;2023-11-21T12:40:03;18.67;;;11.50;;
50219;SDS011;36110;51.536;7.562;2023-11-21T12:42:30;21.65;;;14.10;;
50219;SDS011;36110;51.536;7.562;2023-11-21T12:45:09;6.65;;;4.95;;
50219;SDS011;36110;51.536;7.562;2023-11-21T12:47:43;18.92;;;11.30;;
50219;SDS011;36110;51.536;7.562;2023-11-21T12:50:18;22.27;;;12.93;;
50219;SDS011;36110;51.536;7.562;2023-11-21T12:52:46;25.90;;;14.90;;
50219;SDS011;36110;51.536;7.562;2023-11-21T12:55:16;6.05;;;4.97;;
50219;SDS011;36110;51.536;7.562;2023-11-21T12:57:47;11.85;;;8.48;;
50219;SDS011;36110;51.536;7.562;2023-11-21T13:00:20;24.35;;;15.55;;
50219;SDS011;36110;51.536;7.562;2023-11-21T13:02:54;11.43;;;8.27;;
50219;SDS011;36110;51.536;7.562;2023-11-21T13:05:37;5.78;;;5.00;;
50219;SDS011;36110;51.536;7.562;2023-11-21T13:08:04;17.27;;;12.80;;
50219;SDS011;36110;51.536;7.562;2023-11-21T13:10:33;19.00;;;13.85;;
50219;SDS011;36110;51.536;7.562;2023-11-21T13:13:01;10.38;;;7.47;;
50219;SDS011;36110;51.536;7.562;2023-11-21T13:15:30;14.13;;;8.98;;
50219;SDS011;36110;51.536;7.562;2023-11-21T13:17:56;7.82;;;5.68;;
50219;SDS011;36110;51.536;7.562;2023-11-21T13:20:22;5.65;;;4.75;;
50219;SDS011;36110;51.536;7.562;2023-11-21T13:22:50;17.15;;;11.40;;
50219;SDS011;36110;51.536;7.562;2023-11-21T13:25:26;18.27;;;12.88;;
50219;SDS011;36110;51.536;7.562;2023-11-21T13:27:53;9.73;;;6.45;;
50219;SDS011;36110;51.536;7.562;2023-11-21T13:30:18;22.08;;;13.00;;
50219;SDS011;36110;51.536;7.562;2023-11-21T13:32:48;18.30;;;11.07;;
50219;SDS011;36110;51.536;7.562;2023-11-21T13:35:16;13.80;;;9.50;;
50219;SDS011;36110;51.536;7.562;2023-11-21T13:37:55;17.92;;;11.13;;
50219;SDS011;36110;51.536;7.562;2023-11-21T13:40:24;15.15;;;10.73;;
50219;SDS011;36110;51.536;7.562;2023-11-21T13:42:54;16.33;;;11.48;;
50219;SDS011;36110;51.536;7.562;2023-11-21T13:45:20;11.52;;;7.13;;
50219;SDS011;36110;51.536;7.562;2023-11-21T13:47:48;19.08;;;12.45;;
50219;SDS011;36110;51.536;7.562;2023-11-21T13:50:17;5.93;;;4.93;;
50219;SDS011;36110;51.536;7.562;2023-11-21T13:52:47;11.43;;;9.02;;
50219;SDS011;36110;51.536;7.562;2023-11-21T13:55:13;8.32;;;5.78;;
50219;SDS011;36110;51.536;7.562;2023-11-21T13:57:43;10.90;;;7.82;;
50219;SDS011;36110;51.536;7.562;2023-11-21T14:00:12;18.30;;;12.07;;
50219;SDS011;36110;51.536;7.562;2023-11-21T14:02:57;8.75;;;6.75;;
50219;SDS011;36110;51.536;7.562;2023-11-21T14:05:26;17.95;;;12.13;;
50219;SDS011;36110;51.536;7.562;2023-11-21T14:07:57;14.88;;;10.85;;
50219;SDS011;36110;51.536;7.562;2023-11-21T14:10:29;13.32;;;8.43;;
50219;SDS011;36110;51.536;7.562;2023-11-21T14:13:08;8.48;;;6.95;;
50219;SDS011;36110;51.536;7.562;2023-11-21T14:15:38;12.82;;;9.77;;
50219;SDS011;36110;51.536;7.562;2023-11-21T14:18:07;16.52;;;11.30;;
50219;SDS011;36110;51.536;7.562;2023-11-21T14:20:35;13.52;;;9.85;;
50219;SDS011;36110;51.536;7.562;2023-11-21T14:23:02;15.30;;;10.18;;
50219;SDS011;36110;51.536;7.562;2023-11-21T14:25:28;12.38;;;8.50;;
50219;SDS011;36110;51.536;7.562;2023-11-21T14:27:53;10.55;;;7.85;;
50219;SDS011;36110;51.536;7.562;2023-11-21T14:30:19;9.38;;;7.45;;
50219;SDS011;36110;51.536;7.562;2023-11-21T14:32:47;10.40;;;7.70;;
50219;SDS011;36110;51.536;7.562;2023-11-21T14:35:12;10.02;;;7.80;;
50219;SDS011;36110;51.536;7.562;2023-11-21T14:37:37;8.80;;;6.85;;
50219;SDS011;36110;51.536;7.562;2023-11-21T14:40:03;10.30;;;7.40;;
50219;SDS011;36110;51.536;7.562;2023-11-21T14:42:32;10.55;;;7.28;;
50219;SDS011;36110;51.536;7.562;2023-11-21T14:44:58;8.60;;;6.93;;
50219;SDS011;36110;51.536;7.562;2023-11-21T14:47:28;9.00;;;7.40;;
50219;SDS011;36110;51.536;7.562;2023-11-21T14:49:53;7.43;;;6.53;;
50219;SDS011;36110;51.536;7.562;2023-11-21T14:52:19;8.32;;;6.43;;